sensor_id;sensor_type;location;lat;lon;timestamp;pressure;altitude;pressure_sealevel;temperature;humidity
18201;BME280;9226;47.858;9.594;2022-11-15T00:00:47;95124.94;;;7.88;76.68
18201;BME280;9226;47.858;9.594;2022-11-15T00:03:16;95125.19;;;7.85;77.08
18201;BME280;9226;47.858;9.594;2022-11-15T00:05:42;95118.09;;;7.85;76.95
18201;BME280;9226;47.858;9.594;2022-11-15T00:08:08;95113.75;;;7.84;77.06
18201;BME280;9226;47.858;9.594;2022-11-15T00:10:33;95114.84;;;7.82;76.96
18201;BME280;9226;47.858;9.594;2022-11-15T00:12:59;95112.31;;;7.80;77.04
18201;BME280;9226;47.858;9.594;2022-11-15T00:15:24;95103.53;;;7.79;77.08
18201;BME280;9226;47.858;9.594;2022-11-15T00:17:50;95106.16;;;7.79;76.98
18201;BME280;9226;47.858;9.594;2022-11-15T00:20:16;95102.81;;;7.77;77.17
18201;BME280;9226;47.858;9.594;2022-11-15T00:22:42;95101.38;;;7.73;77.19
18201;BME280;9226;47.858;9.594;2022-11-15T00:25:08;95098.84;;;7.72;77.33
18201;BME280;9226;47.858;9.594;2022-11-15T00:27:33;95094.63;;;7.69;77.27
18201;BME280;9226;47.858;9.594;2022-11-15T00:29:58;95091.28;;;7.67;77.22
18201;BME280;9226;47.858;9.594;2022-11-15T00:32:24;95094.03;;;7.66;77.20
18201;BME280;9226;47.858;9.594;2022-11-15T00:34:49;95088.00;;;7.64;77.21
18201;BME280;9226;47.858;9.594;2022-11-15T00:37:15;95082.84;;;7.62;77.15
18201;BME280;9226;47.858;9.594;2022-11-15T00:39:40;95080.09;;;7.64;77.28
18201;BME280;9226;47.858;9.594;2022-11-15T00:42:06;95087.06;;;7.65;77.20
18201;BME280;9226;47.858;9.594;2022-11-15T00:44:31;95094.03;;;7.66;77.14
18201;BME280;9226;47.858;9.594;2022-11-15T00:46:57;95082.00;;;7.61;77.29
18201;BME280;9226;47.858;9.594;2022-11-15T00:49:22;95077.66;;;7.60;77.21
18201;BME280;9226;47.858;9.594;2022-11-15T00:51:48;95072.66;;;7.57;76.99
18201;BME280;9226;47.858;9.594;2022-11-15T00:54:13;95082.56;;;7.54;77.24
18201;BME280;9226;47.858;9.594;2022-11-15T00:56:39;95071.31;;;7.52;77.16
18201;BME280;9226;47.858;9.594;2022-11-15T00:59:04;95076.81;;;7.49;77.31
18201;BME280;9226;47.858;9.594;2022-11-15T01:01:29;95077.28;;;7.42;77.37
18201;BME280;9226;47.858;9.594;2022-11-15T01:03:55;95077.59;;;7.38;77.68
18201;BME280;9226;47.858;9.594;2022-11-15T01:06:20;95065.63;;;7.34;77.45
18201;BME280;9226;47.858;9.594;2022-11-15T01:08:46;95060.91;;;7.26;77.87
18201;BME280;9226;47.858;9.594;2022-11-15T01:11:11;95057.50;;;7.24;77.72
18201;BME280;9226;47.858;9.594;2022-11-15T01:13:38;95059.56;;;7.20;77.82
18201;BME280;9226;47.858;9.594;2022-11-15T01:16:13;95059.88;;;7.16;77.72
18201;BME280;9226;47.858;9.594;2022-11-15T01:18:39;95057.47;;;7.13;78.12
18201;BME280;9226;47.858;9.594;2022-11-15T01:21:14;95058.66;;;7.09;78.16
18201;BME280;9226;47.858;9.594;2022-11-15T01:23:40;95060.34;;;7.10;77.94
18201;BME280;9226;47.858;9.594;2022-11-15T01:26:07;95053.63;;;7.05;78.22
18201;BME280;9226;47.858;9.594;2022-11-15T01:28:36;95051.22;;;7.02;78.23
18201;BME280;9226;47.858;9.594;2022-11-15T01:31:04;95043.53;;;6.99;78.47
18201;BME280;9226;47.858;9.594;2022-11-15T01:33:30;95047.31;;;6.95;78.52
18201;BME280;9226;47.858;9.594;2022-11-15T01:35:55;95041.31;;;6.93;78.44
18201;BME280;9226;47.858;9.594;2022-11-15T01:38:21;95037.22;;;6.89;78.58
18201;BME280;9226;47.858;9.594;2022-11-15T01:40:48;95038.31;;;6.86;78.58
18201;BME280;9226;47.858;9.594;2022-11-15T01:43:25;95041.28;;;6.82;78.55
18201;BME280;9226;47.858;9.594;2022-11-15T01:46:06;95042.22;;;6.81;78.87
18201;BME280;9226;47.858;9.594;2022-11-15T01:48:33;95036.44;;;6.76;79.01
18201;BME280;9226;47.858;9.594;2022-11-15T01:51:05;95043.84;;;6.70;79.11
18201;BME280;9226;47.858;9.594;2022-11-15T01:53:33;95031.50;;;6.71;79.11
18201;BME280;9226;47.858;9.594;2022-11-15T01:56:04;95042.38;;;6.66;79.53
18201;BME280;9226;47.858;9.594;2022-11-15T01:58:31;95033.63;;;6.66;79.63
18201;BME280;9226;47.858;9.594;2022-11-15T02:00:57;95032.06;;;6.63;79.94
18201;BME280;9226;47.858;9.594;2022-11-15T02:03:26;95040.41;;;6.57;80.42
18201;BME280;9226;47.858;9.594;2022-11-15T02:05:54;95033.66;;;6.53;80.81
18201;BME280;9226;47.858;9.594;2022-11-15T02:08:20;95032.00;;;6.52;80.92
18201;BME280;9226;47.858;9.594;2022-11-15T02:10:48;95028.53;;;6.51;80.86
18201;BME280;9226;47.858;9.594;2022-11-15T02:13:15;95028.28;;;6.55;80.60
18201;BME280;9226;47.858;9.594;2022-11-15T02:18:59;95017.97;;;6.51;81.04
18201;BME280;9226;47.858;9.594;2022-11-15T02:24:22;95018.38;;;6.58;80.45
18201;BME280;9226;47.858;9.594;2022-11-15T02:27:24;95009.28;;;6.62;80.37
18201;BME280;9226;47.858;9.594;2022-11-15T02:32:54;95004.53;;;6.67;80.05
18201;BME280;9226;47.858;9.594;2022-11-15T02:37:52;94989.22;;;6.73;79.96
18201;BME280;9226;47.858;9.594;2022-11-15T02:40:39;94983.94;;;6.73;79.99
18201;BME280;9226;47.858;9.594;2022-11-15T02:43:12;94987.19;;;6.76;79.94
18201;BME280;9226;47.858;9.594;2022-11-15T02:48:33;94976.31;;;6.81;79.88
18201;BME280;9226;47.858;9.594;2022-11-15T02:50:59;94971.63;;;6.84;79.97
18201;BME280;9226;47.858;9.594;2022-11-15T02:53:26;94983.88;;;6.85;79.84
18201;BME280;9226;47.858;9.594;2022-11-15T02:55:53;94980.91;;;6.90;79.83
18201;BME280;9226;47.858;9.594;2022-11-15T03:01:22;94968.31;;;6.94;80.09
18201;BME280;9226;47.858;9.594;2022-11-15T03:03:59;94976.84;;;6.97;80.05
18201;BME280;9226;47.858;9.594;2022-11-15T03:06:36;94980.00;;;7.02;79.94
18201;BME280;9226;47.858;9.594;2022-11-15T03:11:48;94971.00;;;7.05;80.10
18201;BME280;9226;47.858;9.594;2022-11-15T03:14:23;94980.38;;;7.09;80.06
18201;BME280;9226;47.858;9.594;2022-11-15T03:21:51;94971.28;;;7.13;80.34
18201;BME280;9226;47.858;9.594;2022-11-15T03:24:19;94967.78;;;7.13;80.44
18201;BME280;9226;47.858;9.594;2022-11-15T03:26:47;94967.56;;;7.16;80.43
18201;BME280;9226;47.858;9.594;2022-11-15T03:29:17;94962.63;;;7.11;80.96
18201;BME280;9226;47.858;9.594;2022-11-15T03:31:47;94964.91;;;7.16;80.47
18201;BME280;9226;47.858;9.594;2022-11-15T03:34:32;94961.31;;;7.17;80.16
18201;BME280;9226;47.858;9.594;2022-11-15T03:37:00;94948.03;;;7.18;80.04
18201;BME280;9226;47.858;9.594;2022-11-15T03:39:26;94947.16;;;7.18;80.29
18201;BME280;9226;47.858;9.594;2022-11-15T03:49:33;94940.72;;;7.33;79.76
18201;BME280;9226;47.858;9.594;2022-11-15T03:52:02;94941.69;;;7.32;79.54
18201;BME280;9226;47.858;9.594;2022-11-15T03:54:28;94939.19;;;7.31;79.45
18201;BME280;9226;47.858;9.594;2022-11-15T03:56:53;94943.59;;;7.30;79.53
18201;BME280;9226;47.858;9.594;2022-11-15T03:59:19;94940.47;;;7.25;79.74
18201;BME280;9226;47.858;9.594;2022-11-15T04:01:45;94942.75;;;7.18;79.72
18201;BME280;9226;47.858;9.594;2022-11-15T04:04:10;94935.78;;;7.17;79.57
18201;BME280;9226;47.858;9.594;2022-11-15T04:06:37;94935.19;;;7.14;79.52
18201;BME280;9226;47.858;9.594;2022-11-15T04:09:03;94936.00;;;7.14;79.47
18201;BME280;9226;47.858;9.594;2022-11-15T04:11:28;94927.03;;;7.17;79.32
18201;BME280;9226;47.858;9.594;2022-11-15T04:13:54;94933.03;;;7.19;79.42
18201;BME280;9226;47.858;9.594;2022-11-15T04:16:19;94926.31;;;7.15;79.64
18201;BME280;9226;47.858;9.594;2022-11-15T04:18:44;94933.72;;;7.10;79.81
18201;BME280;9226;47.858;9.594;2022-11-15T04:21:30;94924.25;;;7.07;79.83
18201;BME280;9226;47.858;9.594;2022-11-15T04:24:14;94923.16;;;7.10;79.82
18201;BME280;9226;47.858;9.594;2022-11-15T04:26:40;94916.94;;;7.11;79.75
18201;BME280;9226;47.858;9.594;2022-11-15T04:29:05;94918.41;;;7.15;79.72
18201;BME280;9226;47.858;9.594;2022-11-15T04:31:50;94918.25;;;7.16;79.20
18201;BME280;9226;47.858;9.594;2022-11-15T04:34:15;94912.16;;;7.16;79.18
18201;BME280;9226;47.858;9.594;2022-11-15T04:36:40;94911.09;;;7.18;79.17
18201;BME280;9226;47.858;9.594;2022-11-15T04:39:24;94922.25;;;7.22;79.24
18201;BME280;9226;47.858;9.594;2022-11-15T04:41:49;94914.31;;;7.22;79.55
18201;BME280;9226;47.858;9.594;2022-11-15T04:44:15;94913.38;;;7.23;79.48
18201;BME280;9226;47.858;9.594;2022-11-15T04:46:41;94913.38;;;7.23;79.62
18201;BME280;9226;47.858;9.594;2022-11-15T04:49:06;94913.38;;;7.23;79.40
18201;BME280;9226;47.858;9.594;2022-11-15T04:51:32;94916.97;;;7.22;79.30
18201;BME280;9226;47.858;9.594;2022-11-15T04:53:57;94920.66;;;7.19;79.35
18201;BME280;9226;47.858;9.594;2022-11-15T04:56:23;94919.34;;;7.14;79.43
18201;BME280;9226;47.858;9.594;2022-11-15T04:58:49;94911.78;;;7.09;79.43
18201;BME280;9226;47.858;9.594;2022-11-15T05:01:15;94909.25;;;7.07;79.35
18201;BME280;9226;47.858;9.594;2022-11-15T05:03:44;94907.56;;;7.06;79.32
18201;BME280;9226;47.858;9.594;2022-11-15T05:06:28;94921.75;;;7.05;79.51
18201;BME280;9226;47.858;9.594;2022-11-15T05:08:54;94912.13;;;7.04;79.39
18201;BME280;9226;47.858;9.594;2022-11-15T05:11:19;94908.88;;;7.01;79.40
18201;BME280;9226;47.858;9.594;2022-11-15T05:13:46;94910.91;;;6.97;79.31
18201;BME280;9226;47.858;9.594;2022-11-15T05:16:11;94910.19;;;6.95;79.33
18201;BME280;9226;47.858;9.594;2022-11-15T05:18:36;94900.84;;;6.91;79.30
18201;BME280;9226;47.858;9.594;2022-11-15T05:21:07;94908.75;;;6.91;79.29
18201;BME280;9226;47.858;9.594;2022-11-15T05:23:33;94902.03;;;6.87;79.39
18201;BME280;9226;47.858;9.594;2022-11-15T05:26:03;94902.84;;;6.87;79.26
18201;BME280;9226;47.858;9.594;2022-11-15T05:28:29;94895.91;;;6.86;79.24
18201;BME280;9226;47.858;9.594;2022-11-15T05:31:21;94901.88;;;6.77;79.46
18201;BME280;9226;47.858;9.594;2022-11-15T05:33:48;94901.66;;;6.80;79.38
18201;BME280;9226;47.858;9.594;2022-11-15T05:36:34;94899.47;;;6.74;79.27
18201;BME280;9226;47.858;9.594;2022-11-15T05:39:01;94896.59;;;6.77;79.32
18201;BME280;9226;47.858;9.594;2022-11-15T05:41:46;94897.88;;;6.72;79.38
18201;BME280;9226;47.858;9.594;2022-11-15T05:44:15;94891.66;;;6.73;79.18
18201;BME280;9226;47.858;9.594;2022-11-15T05:46:42;94892.63;;;6.72;79.45
18201;BME280;9226;47.858;9.594;2022-11-15T05:49:11;94881.59;;;6.66;79.70
18201;BME280;9226;47.858;9.594;2022-11-15T05:51:39;94880.63;;;6.67;79.47
18201;BME280;9226;47.858;9.594;2022-11-15T05:54:05;94878.34;;;6.63;79.56
18201;BME280;9226;47.858;9.594;2022-11-15T05:56:30;94879.63;;;6.57;79.64
18201;BME280;9226;47.858;9.594;2022-11-15T05:58:57;94869.75;;;6.48;79.79
18201;BME280;9226;47.858;9.594;2022-11-15T06:01:24;94874.09;;;6.49;79.89
18201;BME280;9226;47.858;9.594;2022-11-15T06:03:50;94868.31;;;6.44;80.12
18201;BME280;9226;47.858;9.594;2022-11-15T06:06:15;94877.63;;;6.37;80.09
18201;BME280;9226;47.858;9.594;2022-11-15T06:08:41;94866.47;;;6.33;80.22
18201;BME280;9226;47.858;9.594;2022-11-15T06:11:07;94876.41;;;6.29;80.46
18201;BME280;9226;47.858;9.594;2022-11-15T06:13:33;94885.25;;;6.28;79.79
18201;BME280;9226;47.858;9.594;2022-11-15T06:15:58;94884.88;;;6.22;80.24
18201;BME280;9226;47.858;9.594;2022-11-15T06:18:24;94892.13;;;6.18;80.55
18201;BME280;9226;47.858;9.594;2022-11-15T06:20:49;94885.94;;;6.19;80.28
18201;BME280;9226;47.858;9.594;2022-11-15T06:23:15;94879.41;;;6.12;80.77
18201;BME280;9226;47.858;9.594;2022-11-15T06:25:40;94884.94;;;6.09;81.04
18201;BME280;9226;47.858;9.594;2022-11-15T06:28:06;94892.56;;;6.12;80.43
18201;BME280;9226;47.858;9.594;2022-11-15T06:30:31;94890.19;;;6.09;80.43
18201;BME280;9226;47.858;9.594;2022-11-15T06:33:01;94894.00;;;6.05;80.44
18201;BME280;9226;47.858;9.594;2022-11-15T06:35:27;94894.44;;;5.98;80.58
18201;BME280;9226;47.858;9.594;2022-11-15T06:37:53;94903.16;;;5.99;80.53
18201;BME280;9226;47.858;9.594;2022-11-15T06:40:19;94901.59;;;5.96;80.81
18201;BME280;9226;47.858;9.594;2022-11-15T06:42:44;94898.06;;;5.96;80.94
18201;BME280;9226;47.858;9.594;2022-11-15T06:45:10;94894.63;;;5.95;80.97
18201;BME280;9226;47.858;9.594;2022-11-15T06:47:35;94907.38;;;6.02;80.84
18201;BME280;9226;47.858;9.594;2022-11-15T06:50:00;94892.28;;;6.04;81.29
18201;BME280;9226;47.858;9.594;2022-11-15T06:52:26;94900.56;;;6.23;82.40
18201;BME280;9226;47.858;9.594;2022-11-15T06:54:51;94903.06;;;6.49;82.60
18201;BME280;9226;47.858;9.594;2022-11-15T06:57:17;94898.19;;;6.91;82.15
18201;BME280;9226;47.858;9.594;2022-11-15T06:59:42;94891.53;;;7.21;81.67
18201;BME280;9226;47.858;9.594;2022-11-15T07:02:14;94895.91;;;7.67;80.01
18201;BME280;9226;47.858;9.594;2022-11-15T07:04:40;94896.53;;;8.26;80.26
18201;BME280;9226;47.858;9.594;2022-11-15T07:07:05;94887.94;;;8.77;78.17
18201;BME280;9226;47.858;9.594;2022-11-15T07:09:31;94883.19;;;9.13;74.56
18201;BME280;9226;47.858;9.594;2022-11-15T07:11:56;94875.03;;;9.47;73.72
18201;BME280;9226;47.858;9.594;2022-11-15T07:14:22;94878.97;;;9.93;70.24
18201;BME280;9226;47.858;9.594;2022-11-15T07:16:47;94878.59;;;10.58;70.93
18201;BME280;9226;47.858;9.594;2022-11-15T07:19:12;94875.94;;;10.58;68.03
18201;BME280;9226;47.858;9.594;2022-11-15T07:21:38;94874.75;;;11.19;68.19
18201;BME280;9226;47.858;9.594;2022-11-15T07:24:04;94871.97;;;11.68;68.63
18201;BME280;9226;47.858;9.594;2022-11-15T07:26:29;94866.91;;;12.12;66.99
18201;BME280;9226;47.858;9.594;2022-11-15T07:28:54;94859.59;;;12.42;66.86
18201;BME280;9226;47.858;9.594;2022-11-15T07:31:20;94860.28;;;12.98;65.07
18201;BME280;9226;47.858;9.594;2022-11-15T07:33:45;94863.28;;;13.39;62.79
18201;BME280;9226;47.858;9.594;2022-11-15T07:36:11;94857.81;;;13.41;61.13
18201;BME280;9226;47.858;9.594;2022-11-15T07:38:36;94859.31;;;13.70;61.07
18201;BME280;9226;47.858;9.594;2022-11-15T07:41:03;94861.19;;;14.63;60.67
18201;BME280;9226;47.858;9.594;2022-11-15T07:43:29;94857.00;;;14.60;58.23
18201;BME280;9226;47.858;9.594;2022-11-15T07:45:56;94853.59;;;14.42;55.65
18201;BME280;9226;47.858;9.594;2022-11-15T07:48:22;94859.06;;;15.32;54.76
18201;BME280;9226;47.858;9.594;2022-11-15T07:50:48;94858.03;;;15.50;54.31
18201;BME280;9226;47.858;9.594;2022-11-15T07:53:13;94858.34;;;15.80;52.96
18201;BME280;9226;47.858;9.594;2022-11-15T07:55:40;94858.91;;;16.06;51.66
18201;BME280;9226;47.858;9.594;2022-11-15T07:58:08;94852.19;;;17.28;52.19
18201;BME280;9226;47.858;9.594;2022-11-15T08:00:35;94850.84;;;17.47;49.03
18201;BME280;9226;47.858;9.594;2022-11-15T08:03:09;94856.47;;;18.35;47.49
18201;BME280;9226;47.858;9.594;2022-11-15T08:05:36;94859.63;;;18.75;46.12
18201;BME280;9226;47.858;9.594;2022-11-15T08:08:02;94854.78;;;19.22;45.02
18201;BME280;9226;47.858;9.594;2022-11-15T08:10:28;94859.81;;;19.31;45.25
18201;BME280;9226;47.858;9.594;2022-11-15T08:13:03;94851.81;;;19.38;45.13
18201;BME280;9226;47.858;9.594;2022-11-15T08:15:30;94846.66;;;19.15;45.65
18201;BME280;9226;47.858;9.594;2022-11-15T08:18:00;94846.31;;;19.25;44.17
18201;BME280;9226;47.858;9.594;2022-11-15T08:20:28;94835.88;;;19.93;44.73
18201;BME280;9226;47.858;9.594;2022-11-15T08:22:56;94832.47;;;20.54;44.13
18201;BME280;9226;47.858;9.594;2022-11-15T08:25:23;94831.91;;;20.66;43.63
18201;BME280;9226;47.858;9.594;2022-11-15T08:27:51;94817.69;;;21.12;42.37
18201;BME280;9226;47.858;9.594;2022-11-15T08:30:17;94813.53;;;22.03;41.49
18201;BME280;9226;47.858;9.594;2022-11-15T08:32:42;94815.63;;;21.14;39.75
18201;BME280;9226;47.858;9.594;2022-11-15T08:35:08;94817.97;;;21.57;39.73
18201;BME280;9226;47.858;9.594;2022-11-15T08:37:33;94815.28;;;22.49;40.77
18201;BME280;9226;47.858;9.594;2022-11-15T08:39:59;94811.06;;;22.99;38.87
18201;BME280;9226;47.858;9.594;2022-11-15T08:42:24;94808.63;;;22.45;37.81
18201;BME280;9226;47.858;9.594;2022-11-15T08:44:50;94810.91;;;21.49;39.88
18201;BME280;9226;47.858;9.594;2022-11-15T08:47:15;94804.88;;;21.67;38.60
18201;BME280;9226;47.858;9.594;2022-11-15T08:49:40;94811.47;;;21.85;38.70
18201;BME280;9226;47.858;9.594;2022-11-15T08:52:06;94801.91;;;22.68;38.98
18201;BME280;9226;47.858;9.594;2022-11-15T08:54:31;94801.53;;;22.57;38.22
18201;BME280;9226;47.858;9.594;2022-11-15T08:56:57;94803.38;;;22.64;37.89
18201;BME280;9226;47.858;9.594;2022-11-15T08:59:22;94798.00;;;22.57;37.89
18201;BME280;9226;47.858;9.594;2022-11-15T09:01:48;94795.38;;;22.37;38.44
18201;BME280;9226;47.858;9.594;2022-11-15T09:04:13;94807.88;;;22.76;37.98
18201;BME280;9226;47.858;9.594;2022-11-15T09:06:39;94794.97;;;23.17;37.84
18201;BME280;9226;47.858;9.594;2022-11-15T09:09:04;94795.94;;;23.29;37.05
18201;BME280;9226;47.858;9.594;2022-11-15T09:11:29;94797.78;;;23.79;36.94
18201;BME280;9226;47.858;9.594;2022-11-15T09:13:55;94795.94;;;23.98;36.75
18201;BME280;9226;47.858;9.594;2022-11-15T09:16:20;94799.59;;;24.11;36.84
18201;BME280;9226;47.858;9.594;2022-11-15T09:18:46;94794.09;;;24.36;36.77
18201;BME280;9226;47.858;9.594;2022-11-15T09:21:11;94787.66;;;24.49;36.25
18201;BME280;9226;47.858;9.594;2022-11-15T09:23:37;94776.03;;;23.93;35.60
18201;BME280;9226;47.858;9.594;2022-11-15T09:26:04;94779.28;;;23.51;36.58
18201;BME280;9226;47.858;9.594;2022-11-15T09:28:30;94775.16;;;23.23;37.28
18201;BME280;9226;47.858;9.594;2022-11-15T09:31:00;94780.41;;;22.80;37.29
18201;BME280;9226;47.858;9.594;2022-11-15T09:33:26;94781.59;;;22.90;37.21
18201;BME280;9226;47.858;9.594;2022-11-15T09:35:52;94783.63;;;24.21;35.99
18201;BME280;9226;47.858;9.594;2022-11-15T09:38:19;94782.78;;;24.39;36.08
18201;BME280;9226;47.858;9.594;2022-11-15T09:40:50;94778.59;;;24.43;35.25
18201;BME280;9226;47.858;9.594;2022-11-15T09:43:39;94780.00;;;24.27;34.88
18201;BME280;9226;47.858;9.594;2022-11-15T09:48:41;94780.06;;;23.33;35.60
18201;BME280;9226;47.858;9.594;2022-11-15T09:51:39;94772.75;;;23.59;35.85
18201;BME280;9226;47.858;9.594;2022-11-15T09:54:16;94764.34;;;23.42;36.56
18201;BME280;9226;47.858;9.594;2022-11-15T09:56:44;94754.38;;;23.17;36.29
18201;BME280;9226;47.858;9.594;2022-11-15T10:02:31;94745.88;;;22.75;34.93
18201;BME280;9226;47.858;9.594;2022-11-15T10:04:59;94745.69;;;23.34;35.52
18201;BME280;9226;47.858;9.594;2022-11-15T10:07:36;94743.66;;;22.97;35.01
18201;BME280;9226;47.858;9.594;2022-11-15T10:10:20;94749.03;;;23.04;35.15
18201;BME280;9226;47.858;9.594;2022-11-15T10:12:50;94753.00;;;23.33;35.90
18201;BME280;9226;47.858;9.594;2022-11-15T10:15:18;94744.31;;;23.24;35.04
18201;BME280;9226;47.858;9.594;2022-11-15T10:20:43;94743.63;;;23.10;34.31
18201;BME280;9226;47.858;9.594;2022-11-15T10:23:14;94736.47;;;22.84;35.29
18201;BME280;9226;47.858;9.594;2022-11-15T10:25:40;94738.84;;;22.74;35.88
18201;BME280;9226;47.858;9.594;2022-11-15T10:28:21;94737.69;;;22.56;35.47
18201;BME280;9226;47.858;9.594;2022-11-15T10:30:49;94722.44;;;22.30;36.97
18201;BME280;9226;47.858;9.594;2022-11-15T10:35:45;94725.78;;;22.19;37.34
18201;BME280;9226;47.858;9.594;2022-11-15T10:38:11;94728.03;;;21.57;38.04
18201;BME280;9226;47.858;9.594;2022-11-15T10:40:38;94721.81;;;21.63;38.20
18201;BME280;9226;47.858;9.594;2022-11-15T10:43:05;94710.41;;;21.61;39.22
18201;BME280;9226;47.858;9.594;2022-11-15T10:45:32;94707.22;;;21.84;38.54
18201;BME280;9226;47.858;9.594;2022-11-15T10:50:43;94702.03;;;22.28;38.57
18201;BME280;9226;47.858;9.594;2022-11-15T10:53:21;94697.47;;;22.35;38.03
18201;BME280;9226;47.858;9.594;2022-11-15T10:55:49;94692.72;;;22.62;38.22
18201;BME280;9226;47.858;9.594;2022-11-15T10:58:32;94690.41;;;22.34;37.78
18201;BME280;9226;47.858;9.594;2022-11-15T11:01:27;94687.81;;;22.07;38.37
18201;BME280;9226;47.858;9.594;2022-11-15T11:04:06;94696.34;;;22.04;38.62
18201;BME280;9226;47.858;9.594;2022-11-15T11:06:56;94695.09;;;20.81;40.00
18201;BME280;9226;47.858;9.594;2022-11-15T11:09:34;94688.19;;;20.45;41.16
18201;BME280;9226;47.858;9.594;2022-11-15T11:12:01;94694.03;;;19.94;42.64
18201;BME280;9226;47.858;9.594;2022-11-15T11:14:32;94694.34;;;19.36;42.45
18201;BME280;9226;47.858;9.594;2022-11-15T11:22:32;94683.03;;;17.52;47.76
18201;BME280;9226;47.858;9.594;2022-11-15T11:27:59;94679.13;;;16.95;48.85
18201;BME280;9226;47.858;9.594;2022-11-15T11:30:46;94680.09;;;16.79;49.09
18201;BME280;9226;47.858;9.594;2022-11-15T11:33:19;94677.41;;;16.41;49.81
18201;BME280;9226;47.858;9.594;2022-11-15T11:36:20;94670.44;;;16.09;50.38
18201;BME280;9226;47.858;9.594;2022-11-15T11:39:19;94680.53;;;15.99;51.45
18201;BME280;9226;47.858;9.594;2022-11-15T11:41:49;94681.94;;;15.47;52.13
18201;BME280;9226;47.858;9.594;2022-11-15T11:47:15;94684.16;;;14.79;53.80
18201;BME280;9226;47.858;9.594;2022-11-15T11:50:11;94687.16;;;14.68;54.34
18201;BME280;9226;47.858;9.594;2022-11-15T11:58:41;94676.44;;;14.02;58.33
18201;BME280;9226;47.858;9.594;2022-11-15T12:03:53;94672.41;;;13.89;59.71
18201;BME280;9226;47.858;9.594;2022-11-15T12:14:29;94663.16;;;13.43;63.40
18201;BME280;9226;47.858;9.594;2022-11-15T12:16:57;94668.00;;;13.47;63.54
18201;BME280;9226;47.858;9.594;2022-11-15T12:19:24;94676.41;;;13.34;63.56
18201;BME280;9226;47.858;9.594;2022-11-15T12:21:56;94676.50;;;13.51;63.65
18201;BME280;9226;47.858;9.594;2022-11-15T12:29:39;94665.66;;;13.44;64.25
18201;BME280;9226;47.858;9.594;2022-11-15T12:32:33;94666.97;;;13.40;65.45
18201;BME280;9226;47.858;9.594;2022-11-15T12:35:02;94664.00;;;13.51;64.55
18201;BME280;9226;47.858;9.594;2022-11-15T12:42:39;94664.31;;;13.48;65.86
18201;BME280;9226;47.858;9.594;2022-11-15T12:45:36;94660.47;;;13.43;66.48
18201;BME280;9226;47.858;9.594;2022-11-15T12:51:00;94656.63;;;13.11;68.35
18201;BME280;9226;47.858;9.594;2022-11-15T12:53:30;94664.72;;;12.93;69.58
18201;BME280;9226;47.858;9.594;2022-11-15T12:58:46;94656.94;;;13.08;68.49
18201;BME280;9226;47.858;9.594;2022-11-15T13:12:01;94649.13;;;12.45;71.95
18201;BME280;9226;47.858;9.594;2022-11-15T13:19:47;94632.06;;;12.30;73.19
18201;BME280;9226;47.858;9.594;2022-11-15T13:22:13;94622.88;;;12.51;71.98
18201;BME280;9226;47.858;9.594;2022-11-15T13:24:59;94621.00;;;12.43;72.52
18201;BME280;9226;47.858;9.594;2022-11-15T13:27:26;94613.50;;;12.38;72.96
18201;BME280;9226;47.858;9.594;2022-11-15T13:29:52;94609.84;;;12.39;71.69
18201;BME280;9226;47.858;9.594;2022-11-15T13:32:18;94605.91;;;12.25;73.16
18201;BME280;9226;47.858;9.594;2022-11-15T13:34:49;94599.41;;;12.20;73.49
18201;BME280;9226;47.858;9.594;2022-11-15T13:39:47;94597.94;;;12.25;71.97
18201;BME280;9226;47.858;9.594;2022-11-15T13:42:17;94581.81;;;12.27;71.68
18201;BME280;9226;47.858;9.594;2022-11-15T13:44:57;94568.13;;;12.13;72.87
18201;BME280;9226;47.858;9.594;2022-11-15T13:47:26;94562.69;;;12.23;72.08
18201;BME280;9226;47.858;9.594;2022-11-15T13:49:58;94554.41;;;12.00;72.92
18201;BME280;9226;47.858;9.594;2022-11-15T13:52:28;94561.88;;;12.23;71.66
18201;BME280;9226;47.858;9.594;2022-11-15T13:55:13;94561.22;;;12.21;71.76
18201;BME280;9226;47.858;9.594;2022-11-15T13:57:46;94554.97;;;12.12;72.07
18201;BME280;9226;47.858;9.594;2022-11-15T14:03:23;94552.78;;;12.07;71.56
18201;BME280;9226;47.858;9.594;2022-11-15T14:06:06;94545.75;;;11.98;72.35
18201;BME280;9226;47.858;9.594;2022-11-15T14:08:32;94542.94;;;12.00;72.29
18201;BME280;9226;47.858;9.594;2022-11-15T14:11:16;94547.88;;;11.94;72.76
18201;BME280;9226;47.858;9.594;2022-11-15T14:14:02;94542.72;;;11.93;72.22
18201;BME280;9226;47.858;9.594;2022-11-15T14:16:39;94542.94;;;11.82;73.35
18201;BME280;9226;47.858;9.594;2022-11-15T14:19:05;94540.81;;;11.85;73.21
18201;BME280;9226;47.858;9.594;2022-11-15T14:21:32;94543.16;;;11.88;72.98
18201;BME280;9226;47.858;9.594;2022-11-15T14:24:17;94534.28;;;11.80;73.65
18201;BME280;9226;47.858;9.594;2022-11-15T14:26:43;94531.69;;;11.88;72.66
18201;BME280;9226;47.858;9.594;2022-11-15T14:29:29;94528.03;;;11.89;73.06
18201;BME280;9226;47.858;9.594;2022-11-15T14:32:16;94527.28;;;11.97;72.19
18201;BME280;9226;47.858;9.594;2022-11-15T14:34:42;94518.84;;;12.01;71.77
18201;BME280;9226;47.858;9.594;2022-11-15T14:37:29;94514.22;;;12.03;72.20
18201;BME280;9226;47.858;9.594;2022-11-15T14:39:58;94512.59;;;12.10;71.54
18201;BME280;9226;47.858;9.594;2022-11-15T14:42:24;94506.63;;;12.08;70.81
18201;BME280;9226;47.858;9.594;2022-11-15T14:44:50;94498.69;;;12.17;69.70
18201;BME280;9226;47.858;9.594;2022-11-15T14:47:16;94500.69;;;12.15;69.47
18201;BME280;9226;47.858;9.594;2022-11-15T14:49:43;94503.56;;;12.03;69.01
18201;BME280;9226;47.858;9.594;2022-11-15T14:52:28;94499.31;;;12.10;68.72
18201;BME280;9226;47.858;9.594;2022-11-15T14:54:55;94495.97;;;12.08;68.41
18201;BME280;9226;47.858;9.594;2022-11-15T14:57:21;94496.28;;;12.05;68.49
18201;BME280;9226;47.858;9.594;2022-11-15T14:59:47;94495.25;;;11.98;68.06
18201;BME280;9226;47.858;9.594;2022-11-15T15:02:21;94488.47;;;12.04;68.27
18201;BME280;9226;47.858;9.594;2022-11-15T15:04:48;94483.66;;;12.07;68.19
18201;BME280;9226;47.858;9.594;2022-11-15T15:07:14;94488.66;;;12.10;68.53
18201;BME280;9226;47.858;9.594;2022-11-15T15:09:40;94482.53;;;12.10;68.59
18201;BME280;9226;47.858;9.594;2022-11-15T15:12:16;94475.06;;;12.13;68.37
18201;BME280;9226;47.858;9.594;2022-11-15T15:14:43;94477.72;;;12.13;68.46
18201;BME280;9226;47.858;9.594;2022-11-15T15:17:08;94475.72;;;12.16;68.28
18201;BME280;9226;47.858;9.594;2022-11-15T15:19:33;94476.03;;;12.12;68.40
18201;BME280;9226;47.858;9.594;2022-11-15T15:21:59;94469.91;;;12.12;68.63